createdAt,value
2019-03-15T00:01:08.224Z,6.72
2019-03-15T00:06:08.502Z,6.75
2019-03-15T00:11:09.469Z,6.74
2019-03-15T00:16:08.498Z,6.69
2019-03-15T00:21:07.516Z,6.70
2019-03-15T00:26:07.225Z,6.67
2019-03-15T00:31:07.429Z,6.68
2019-03-15T00:36:07.420Z,6.67
2019-03-15T00:41:06.397Z,6.63
2019-03-15T00:46:05.172Z,6.62
2019-03-15T00:51:06.180Z,6.61
2019-03-15T00:56:07.449Z,6.60
2019-03-15T01:01:06.167Z,6.63
2019-03-15T01:06:06.202Z,6.67
2019-03-15T01:11:05.283Z,6.70
2019-03-15T01:16:05.178Z,6.70
2019-03-15T01:21:04.210Z,6.69
2019-03-15T01:26:05.410Z,6.65
2019-03-15T01:31:04.149Z,6.65
2019-03-15T01:36:03.636Z,6.64
2019-03-15T01:41:04.273Z,6.62
2019-03-15T01:46:03.244Z,6.58
2019-03-15T01:51:04.247Z,6.54
2019-03-15T01:56:05.278Z,6.56
2019-03-15T02:01:05.468Z,6.55
2019-03-15T02:06:06.473Z,6.56
2019-03-15T02:11:06.206Z,6.55
2019-03-15T02:16:05.231Z,6.54
2019-03-15T02:21:05.216Z,6.58
2019-03-15T02:26:04.533Z,6.58
2019-03-15T02:31:04.481Z,6.53
2019-03-15T02:36:04.192Z,6.50
2019-03-15T02:41:05.021Z,6.48
2019-03-15T02:46:05.502Z,6.44
2019-03-15T02:51:04.589Z,6.43
2019-03-15T02:56:04.474Z,6.37
2019-03-15T03:01:04.204Z,6.33
2019-03-15T03:06:03.487Z,6.32
2019-03-15T03:11:04.243Z,6.30
2019-03-15T03:16:04.279Z,6.30
2019-03-15T03:21:03.559Z,6.25
2019-03-15T03:26:04.595Z,6.21
2019-03-15T03:31:04.678Z,6.23
2019-03-15T03:36:03.263Z,6.25
2019-03-15T03:41:03.241Z,6.28
2019-03-15T03:46:02.535Z,6.28
2019-03-15T03:51:02.371Z,6.29
2019-03-15T03:56:02.263Z,6.28
2019-03-15T04:01:02.535Z,6.29
2019-03-15T04:06:01.344Z,6.34
2019-03-15T04:11:00.224Z,6.34
2019-03-15T04:16:00.564Z,6.37
2019-03-15T04:21:00.548Z,6.39
2019-03-15T04:25:59.524Z,6.39
2019-03-15T04:30:59.244Z,6.40
2019-03-15T04:36:00.321Z,6.44
2019-03-15T04:41:00.309Z,6.45
2019-03-15T04:46:00.524Z,6.45
2019-03-15T04:50:59.577Z,6.47
2019-03-15T04:55:58.358Z,6.49
2019-03-15T05:00:57.248Z,6.48
2019-03-15T05:06:03.079Z,6.49
2019-03-15T05:10:57.879Z,6.49
2019-03-15T05:15:58.555Z,6.49
2019-03-15T05:20:58.543Z,6.51
2019-03-15T05:25:58.337Z,6.53
2019-03-15T05:30:59.341Z,6.56
2019-03-15T05:35:58.339Z,6.57
2019-03-15T05:40:59.306Z,6.57
2019-03-15T05:45:59.651Z,6.62
2019-03-15T05:50:59.688Z,6.65
2019-03-15T05:55:59.322Z,6.68
2019-03-15T06:00:59.304Z,6.70
2019-03-15T06:05:58.778Z,6.74
2019-03-15T06:10:57.337Z,6.73
2019-03-15T06:15:57.328Z,6.76
2019-03-15T06:20:57.272Z,6.78
2019-03-15T06:25:58.357Z,6.79
2019-03-15T06:30:58.540Z,6.80
2019-03-15T06:35:58.677Z,6.81
2019-03-15T06:40:58.340Z,6.81
2019-03-15T06:45:57.964Z,6.84
2019-03-15T06:50:56.582Z,6.84
2019-03-15T06:55:56.535Z,6.85
2019-03-15T07:00:55.730Z,6.86
2019-03-15T07:05:56.629Z,6.87
2019-03-15T07:10:56.583Z,6.88
2019-03-15T07:15:56.321Z,6.89
2019-03-15T07:20:56.309Z,6.90
2019-03-15T07:25:56.329Z,6.94
2019-03-15T07:30:55.343Z,6.96
2019-03-15T07:35:55.344Z,7.02
2019-03-15T07:40:55.446Z,7.04
2019-03-15T07:45:54.511Z,7.10
2019-03-15T07:50:54.428Z,7.19
2019-03-15T07:55:53.660Z,7.29
2019-03-15T08:00:54.355Z,7.34
2019-03-15T08:05:53.352Z,7.39
2019-03-15T08:10:55.001Z,7.45
2019-03-15T08:15:52.638Z,7.49
2019-03-15T08:20:52.637Z,7.49
2019-03-15T08:25:52.309Z,7.48
2019-03-15T08:30:51.383Z,7.47
2019-03-15T08:35:50.397Z,7.48
2019-03-15T08:40:49.866Z,7.56
2019-03-15T08:45:49.053Z,7.63
2019-03-15T08:50:48.431Z,7.71
2019-03-15T08:55:48.444Z,7.78
2019-03-15T09:00:47.694Z,7.91
2019-03-15T09:05:47.695Z,8.02
2019-03-15T09:10:47.369Z,8.15
2019-03-15T09:15:47.433Z,8.15
2019-03-15T09:20:46.537Z,8.19
2019-03-15T09:25:45.666Z,8.25
2019-03-15T09:30:45.379Z,8.33
2019-03-15T09:35:45.380Z,8.41
2019-03-15T09:40:45.375Z,8.49
2019-03-15T09:45:45.685Z,8.53
2019-03-15T09:50:51.325Z,8.58
2019-03-15T09:55:45.383Z,8.65
2019-03-15T10:00:45.404Z,8.73
2019-03-15T10:05:45.438Z,8.82
2019-03-15T10:10:49.129Z,8.92
2019-03-15T10:15:47.048Z,9.00
2019-03-15T10:20:45.770Z,9.04
2019-03-15T10:25:48.391Z,9.09
2019-03-15T10:30:44.444Z,9.23
2019-03-15T10:35:44.635Z,9.34
2019-03-15T10:40:43.826Z,9.51
2019-03-15T10:45:43.373Z,9.66
2019-03-15T10:50:44.383Z,9.78
2019-03-15T10:55:43.752Z,9.94
2019-03-15T11:00:42.384Z,9.94
2019-03-15T11:05:41.410Z,10.05
2019-03-15T11:10:40.337Z,10.07
2019-03-15T11:15:40.695Z,10.17
2019-03-15T11:20:40.363Z,10.31
2019-03-15T11:25:40.653Z,10.34
2019-03-15T11:30:39.413Z,10.45
2019-03-15T11:35:38.595Z,10.52
2019-03-15T11:40:38.709Z,10.52
2019-03-15T11:45:39.505Z,10.58
2019-03-15T11:50:38.675Z,10.66
2019-03-15T11:55:39.420Z,10.70
2019-03-15T12:00:39.389Z,10.69
2019-03-15T12:10:39.403Z,10.84
2019-03-15T12:15:39.714Z,10.88
2019-03-15T12:20:40.690Z,10.91
2019-03-15T12:25:40.674Z,10.93
2019-03-15T12:30:42.994Z,10.91
2019-03-15T12:35:39.417Z,10.93
2019-03-15T12:45:40.415Z,10.97
2019-03-15T12:50:39.785Z,10.99
2019-03-15T12:55:39.463Z,11.09
2019-03-15T13:00:38.903Z,11.20
2019-03-15T13:05:39.752Z,11.28
2019-03-15T13:10:39.458Z,11.40
2019-03-15T13:15:39.690Z,11.47
2019-03-15T13:20:40.028Z,11.50
2019-03-15T13:25:39.416Z,11.57
2019-03-15T13:30:38.772Z,11.61
2019-03-15T13:35:37.781Z,11.63
2019-03-15T13:40:36.653Z,11.69
2019-03-15T13:45:36.425Z,11.76
2019-03-15T13:50:37.691Z,11.80
2019-03-15T14:00:36.450Z,11.78
2019-03-15T14:05:36.671Z,11.72
2019-03-15T14:10:48.671Z,11.69
2019-03-15T14:15:35.793Z,11.74
2019-03-15T14:20:36.597Z,11.73
2019-03-15T14:25:35.454Z,11.71
2019-03-15T14:30:34.829Z,11.62
2019-03-15T14:35:34.504Z,11.53
2019-03-15T14:40:33.599Z,11.52
2019-03-15T14:45:34.593Z,11.54
2019-03-15T14:50:35.500Z,11.52
2019-03-15T14:55:36.487Z,11.43
2019-03-15T15:00:36.425Z,11.33
2019-03-15T15:05:36.393Z,11.32
2019-03-15T15:10:36.774Z,11.32
2019-03-15T15:15:36.759Z,11.32
2019-03-15T15:20:36.429Z,11.31
2019-03-15T15:25:35.456Z,11.34
2019-03-15T15:30:35.496Z,11.38
2019-03-15T15:35:34.482Z,11.45
2019-03-15T15:40:34.473Z,11.53
2019-03-15T15:45:33.485Z,11.53
2019-03-15T15:50:32.447Z,11.55
2019-03-15T15:55:32.727Z,11.52
2019-03-15T16:00:32.680Z,11.50
2019-03-15T16:05:31.769Z,11.41
2019-03-15T16:10:31.903Z,11.24
2019-03-15T16:15:32.516Z,11.14
2019-03-15T16:20:32.583Z,11.07
2019-03-15T16:25:31.461Z,10.99
2019-03-15T16:30:31.512Z,10.91
2019-03-15T16:35:30.747Z,10.86
2019-03-15T16:40:30.557Z,10.84
2019-03-15T16:45:29.463Z,10.84
2019-03-15T16:50:28.821Z,10.83
2019-03-15T16:55:28.011Z,10.82
2019-03-15T17:00:27.473Z,10.80
2019-03-15T17:05:27.829Z,10.78
2019-03-15T17:10:27.486Z,10.75
2019-03-15T17:15:26.513Z,10.71
2019-03-15T17:20:26.886Z,10.57
2019-03-15T17:25:26.431Z,10.39
2019-03-15T17:30:25.459Z,10.31
2019-03-15T17:35:26.733Z,10.28
2019-03-15T17:40:26.805Z,10.27
2019-03-15T17:45:26.466Z,10.24
2019-03-15T17:50:26.501Z,10.22
2019-03-15T17:55:25.676Z,10.06
2019-03-15T18:00:26.748Z,9.88
2019-03-15T18:05:25.457Z,9.74
2019-03-15T18:10:26.015Z,9.63
2019-03-15T18:15:24.467Z,9.52
2019-03-15T18:20:23.706Z,9.41
2019-03-15T18:25:23.421Z,9.28
2019-03-15T18:30:22.933Z,9.19
2019-03-15T18:35:32.864Z,9.11
2019-03-15T18:40:22.465Z,9.04
2019-03-15T18:45:21.586Z,8.97
2019-03-15T18:50:21.469Z,8.93
2019-03-15T18:55:20.744Z,8.90
2019-03-15T19:00:20.782Z,8.88
2019-03-15T19:05:19.442Z,8.83
2019-03-15T19:10:18.899Z,8.79
2019-03-15T19:15:18.456Z,8.77
2019-03-15T19:20:17.818Z,8.72
2019-03-15T19:25:17.691Z,8.68
2019-03-15T19:30:17.608Z,8.63
2019-03-15T19:35:18.499Z,8.60
2019-03-15T19:40:18.477Z,8.57
2019-03-15T19:45:18.497Z,8.52
2019-03-15T19:50:19.455Z,8.49
2019-03-15T19:55:18.457Z,8.47
2019-03-15T20:00:18.506Z,8.44
2019-03-15T20:05:18.509Z,8.36
2019-03-15T20:10:17.639Z,8.33
2019-03-15T20:15:18.464Z,8.32
2019-03-15T20:20:17.518Z,8.29
2019-03-15T20:25:16.743Z,8.25
2019-03-15T20:30:21.102Z,8.20
2019-03-15T20:35:16.575Z,8.16
2019-03-15T20:40:15.616Z,8.17
2019-03-15T20:45:14.834Z,8.18
2019-03-15T20:50:15.507Z,8.18
2019-03-15T20:55:15.728Z,8.20
2019-03-15T21:00:15.534Z,8.21
2019-03-15T21:05:14.737Z,8.19
2019-03-15T21:10:13.747Z,8.18
2019-03-15T21:15:12.887Z,8.15
2019-03-15T21:20:12.518Z,8.12
2019-03-15T21:25:12.181Z,8.11
2019-03-15T21:30:11.820Z,8.06
2019-03-15T21:35:11.474Z,8.05
2019-03-15T21:40:11.783Z,8.00
2019-03-15T21:45:11.833Z,7.96
2019-03-15T21:50:11.523Z,7.90
2019-03-15T21:55:10.472Z,7.93
2019-03-15T22:00:09.990Z,7.93
2019-03-15T22:05:10.495Z,7.93
2019-03-15T22:10:11.485Z,7.94
2019-03-15T22:15:11.365Z,7.94
2019-03-15T22:20:10.652Z,7.91
2019-03-15T22:25:09.380Z,7.93
2019-03-15T22:30:08.687Z,7.91
2019-03-15T22:35:07.668Z,7.92
2019-03-15T22:40:07.448Z,7.91
2019-03-15T22:45:07.410Z,7.90
2019-03-15T22:50:06.422Z,7.90
2019-03-15T22:55:06.636Z,7.91
2019-03-15T23:00:05.832Z,7.92
2019-03-15T23:05:05.456Z,7.92
2019-03-15T23:10:04.424Z,7.91
2019-03-15T23:15:04.710Z,7.90
2019-03-15T23:20:04.681Z,7.88
2019-03-15T23:25:04.474Z,7.87
2019-03-15T23:30:03.571Z,7.86
2019-03-15T23:35:03.946Z,7.87
2019-03-15T23:40:03.487Z,7.89
2019-03-15T23:45:03.465Z,7.91
2019-03-15T23:50:03.655Z,7.95
2019-03-15T23:55:02.796Z,7.96
